createdAt,value
2019-04-29T00:00:50.391Z,16.70
2019-04-29T00:03:25.536Z,16.70
2019-04-29T00:05:59.936Z,16.60
2019-04-29T00:08:34.284Z,16.60
2019-04-29T00:11:09.441Z,16.60
2019-04-29T00:13:44.122Z,16.70
2019-04-29T00:16:42.493Z,16.70
2019-04-29T00:19:52.127Z,16.70
2019-04-29T00:22:25.414Z,16.60
2019-04-29T00:24:59.139Z,16.70
2019-04-29T00:27:34.885Z,16.70
2019-04-29T00:30:10.804Z,16.80
2019-04-29T00:32:44.530Z,16.80
2019-04-29T00:35:18.432Z,16.60
2019-04-29T00:38:18.854Z,16.60
2019-04-29T00:41:22.511Z,16.60
2019-04-29T00:43:58.809Z,16.60
2019-04-29T00:46:32.790Z,16.60
2019-04-29T00:49:06.411Z,16.60
2019-04-29T00:51:40.009Z,16.60
2019-04-29T00:54:41.266Z,16.60
2019-04-29T00:57:15.862Z,16.60
2019-04-29T00:59:49.567Z,16.60
2019-04-29T01:02:23.728Z,16.60
2019-04-29T01:04:56.880Z,16.60
2019-04-29T01:07:31.379Z,16.60
2019-04-29T01:10:07.137Z,16.60
2019-04-29T01:12:42.137Z,16.60
2019-04-29T01:15:19.037Z,16.60
2019-04-29T01:17:52.740Z,16.60
2019-04-29T01:20:26.147Z,16.50
2019-04-29T01:23:00.624Z,16.50
2019-04-29T01:25:34.799Z,16.50
2019-04-29T01:28:30.747Z,16.50
2019-04-29T01:31:08.489Z,16.60
2019-04-29T01:33:43.181Z,16.50
2019-04-29T01:36:33.642Z,16.50
2019-04-29T01:39:10.285Z,16.50
2019-04-29T01:42:05.087Z,16.50
2019-04-29T01:44:38.705Z,16.50
2019-04-29T01:47:12.188Z,16.50
2019-04-29T01:49:46.901Z,16.50
2019-04-29T01:52:24.691Z,16.40
2019-04-29T01:54:58.509Z,16.40
2019-04-29T01:57:33.271Z,16.50
2019-04-29T02:00:12.361Z,16.50
2019-04-29T02:02:46.440Z,16.50
2019-04-29T02:05:20.465Z,16.50
2019-04-29T02:07:53.982Z,16.50
2019-04-29T02:10:32.560Z,16.50
2019-04-29T02:13:08.430Z,16.50
2019-04-29T02:15:42.739Z,16.50
2019-04-29T02:18:16.599Z,16.40
2019-04-29T02:20:51.058Z,16.40
2019-04-29T02:24:01.368Z,16.40
2019-04-29T02:26:36.203Z,16.40
2019-04-29T02:29:09.536Z,16.40
2019-04-29T02:31:44.170Z,16.40
2019-04-29T02:34:20.064Z,16.40
2019-04-29T02:36:54.045Z,16.40
2019-04-29T02:39:41.083Z,16.30
2019-04-29T02:42:38.520Z,16.30
2019-04-29T02:45:20.625Z,16.40
2019-04-29T02:47:54.539Z,16.40
2019-04-29T02:50:35.117Z,16.40
2019-04-29T02:53:09.950Z,16.40
2019-04-29T02:55:50.108Z,16.40
2019-04-29T02:58:48.553Z,16.30
2019-04-29T03:01:40.771Z,16.30
2019-04-29T03:04:28.747Z,16.40
2019-04-29T03:07:02.413Z,16.40
2019-04-29T03:09:47.329Z,16.40
2019-04-29T03:12:21.283Z,16.40
2019-04-29T03:14:59.288Z,16.50
2019-04-29T03:17:33.278Z,16.40
2019-04-29T03:20:20.096Z,16.50
2019-04-29T03:23:20.773Z,16.40
2019-04-29T03:25:56.171Z,16.40
2019-04-29T03:28:30.514Z,16.30
2019-04-29T03:31:04.740Z,16.30
2019-04-29T03:33:38.917Z,16.30
2019-04-29T03:36:14.107Z,16.30
2019-04-29T03:38:47.864Z,16.20
2019-04-29T03:41:22.066Z,16.20
2019-04-29T03:43:56.163Z,16.20
2019-04-29T03:46:30.215Z,16.20
2019-04-29T03:49:03.829Z,16.30
2019-04-29T03:51:38.221Z,16.30
2019-04-29T03:54:14.389Z,16.20
2019-04-29T03:56:49.075Z,16.20
2019-04-29T03:59:23.347Z,16.30
2019-04-29T04:02:07.120Z,16.30
2019-04-29T04:04:58.299Z,16.30
2019-04-29T04:07:44.979Z,16.40
2019-04-29T04:10:20.353Z,16.40
2019-04-29T04:12:54.722Z,16.40
2019-04-29T04:15:27.834Z,16.30
2019-04-29T04:18:08.862Z,16.30
2019-04-29T04:20:43.688Z,16.30
2019-04-29T04:23:19.380Z,16.30
2019-04-29T04:25:53.947Z,16.40
2019-04-29T04:28:27.878Z,16.30
2019-04-29T04:31:01.639Z,16.30
2019-04-29T04:33:35.003Z,16.30
2019-04-29T04:36:08.671Z,16.30
2019-04-29T04:38:42.928Z,16.30
2019-04-29T04:41:17.834Z,16.40
2019-04-29T04:43:51.748Z,16.50
2019-04-29T04:46:26.014Z,16.40
2019-04-29T04:49:00.250Z,16.50
2019-04-29T04:51:33.955Z,16.50
2019-04-29T04:54:08.088Z,16.50
2019-04-29T04:56:41.952Z,16.50
2019-04-29T04:59:16.828Z,16.50
2019-04-29T05:01:51.450Z,16.50
2019-04-29T05:04:25.237Z,16.50
2019-04-29T05:06:58.576Z,16.50
2019-04-29T05:09:32.298Z,16.50
2019-04-29T05:12:07.930Z,16.60
2019-04-29T05:14:42.796Z,16.70
2019-04-29T05:17:19.793Z,16.80
2019-04-29T05:19:53.713Z,16.90
2019-04-29T05:22:27.377Z,16.80
2019-04-29T05:25:01.402Z,16.90
2019-04-29T05:27:36.722Z,16.90
2019-04-29T05:30:17.567Z,16.90
2019-04-29T05:32:52.730Z,16.80
2019-04-29T05:35:35.085Z,16.80
2019-04-29T05:38:30.361Z,16.90
2019-04-29T05:41:04.025Z,16.90
2019-04-29T05:44:01.989Z,16.90
2019-04-29T05:46:53.298Z,17.00
2019-04-29T05:49:44.090Z,17.00
2019-04-29T05:52:34.689Z,17.10
2019-04-29T05:55:09.446Z,17.10
2019-04-29T05:57:45.787Z,17.10
2019-04-29T06:00:24.267Z,17.10
2019-04-29T06:02:58.842Z,17.10
2019-04-29T06:05:35.563Z,17.20
2019-04-29T06:08:11.933Z,17.10
2019-04-29T06:10:47.018Z,17.20
2019-04-29T06:13:31.374Z,17.20
2019-04-29T06:16:05.103Z,17.20
2019-04-29T06:18:41.009Z,17.20
2019-04-29T06:21:16.773Z,17.20
2019-04-29T06:23:54.571Z,17.20
2019-04-29T06:26:28.851Z,17.30
2019-04-29T06:29:06.223Z,17.30
2019-04-29T06:31:42.839Z,17.40
2019-04-29T06:34:18.353Z,17.50
2019-04-29T06:36:52.436Z,17.50
2019-04-29T06:39:27.513Z,17.60
2019-04-29T06:42:01.775Z,17.60
2019-04-29T06:44:44.262Z,17.70
2019-04-29T06:47:19.093Z,17.80
2019-04-29T06:49:52.887Z,17.90
2019-04-29T06:52:26.625Z,18.00
2019-04-29T06:55:01.075Z,18.20
2019-04-29T06:57:37.653Z,18.10
2019-04-29T07:00:13.303Z,18.10
2019-04-29T07:02:49.949Z,18.30
2019-04-29T07:05:24.292Z,18.30
2019-04-29T07:08:06.912Z,18.50
2019-04-29T07:10:41.297Z,18.60
2019-04-29T07:13:17.907Z,18.60
2019-04-29T07:15:53.123Z,18.50
2019-04-29T07:18:28.727Z,18.50
2019-04-29T07:21:07.404Z,18.50
2019-04-29T07:23:42.240Z,18.50
2019-04-29T07:26:26.184Z,18.50
2019-04-29T07:29:02.061Z,18.50
2019-04-29T07:31:37.988Z,18.60
2019-04-29T07:34:13.440Z,18.60
2019-04-29T07:36:47.779Z,18.70
2019-04-29T07:39:31.774Z,18.80
2019-04-29T07:42:05.718Z,18.80
2019-04-29T07:45:06.509Z,18.80
2019-04-29T07:47:49.639Z,18.70
2019-04-29T07:50:18.134Z,18.80
2019-04-29T07:52:52.130Z,18.80
2019-04-29T07:55:30.828Z,18.60
2019-04-29T07:58:05.362Z,18.50
2019-04-29T08:00:40.101Z,18.50
2019-04-29T08:03:14.900Z,18.50
2019-04-29T08:05:49.239Z,18.50
2019-04-29T08:08:24.273Z,18.60
2019-04-29T08:10:57.964Z,18.70
2019-04-29T08:13:35.525Z,18.80
2019-04-29T08:16:12.669Z,18.90
2019-04-29T08:18:44.871Z,19.10
2019-04-29T08:21:21.391Z,19.10
2019-04-29T08:23:55.860Z,19.10
2019-04-29T08:26:46.558Z,19.00
2019-04-29T08:29:14.038Z,19.00
2019-04-29T08:31:51.880Z,19.00
2019-04-29T08:34:24.392Z,19.00
2019-04-29T08:37:01.085Z,19.00
2019-04-29T08:39:35.454Z,19.20
2019-04-29T08:42:24.080Z,19.30
2019-04-29T08:45:27.784Z,19.50
2019-04-29T08:48:11.544Z,19.60
2019-04-29T08:50:45.890Z,19.60
2019-04-29T08:53:22.280Z,19.80
2019-04-29T08:55:56.545Z,19.70
2019-04-29T08:58:29.939Z,19.90
2019-04-29T09:01:04.831Z,19.90
2019-04-29T09:03:43.562Z,20.10
2019-04-29T09:06:17.273Z,20.00
2019-04-29T09:08:55.236Z,20.10
2019-04-29T09:11:26.155Z,20.20
2019-04-29T09:14:00.327Z,20.10
2019-04-29T09:16:34.301Z,20.10
2019-04-29T09:19:11.664Z,20.20
2019-04-29T09:21:46.292Z,20.20
2019-04-29T09:24:20.059Z,20.20
2019-04-29T09:27:15.239Z,20.20
2019-04-29T09:29:49.580Z,20.20
2019-04-29T09:32:24.378Z,20.20
2019-04-29T09:35:00.528Z,20.30
2019-04-29T09:37:35.617Z,20.20
2019-04-29T09:40:12.249Z,20.30
2019-04-29T09:43:14.606Z,20.60
2019-04-29T09:45:58.761Z,20.90
2019-04-29T09:48:30.921Z,21.10
2019-04-29T09:51:16.796Z,20.70
2019-04-29T09:53:44.576Z,20.60
2019-04-29T09:56:23.223Z,20.70
2019-04-29T09:59:15.870Z,20.70
2019-04-29T10:02:02.972Z,21.00
2019-04-29T10:04:56.300Z,21.20
2019-04-29T10:07:32.844Z,21.10
2019-04-29T10:10:07.872Z,21.10
2019-04-29T10:12:41.885Z,21.20
2019-04-29T10:15:18.212Z,21.20
2019-04-29T10:18:15.962Z,21.20
2019-04-29T10:21:01.448Z,21.20
2019-04-29T10:23:34.872Z,21.10
2019-04-29T10:26:09.047Z,20.90
2019-04-29T10:28:58.323Z,20.80
2019-04-29T10:31:32.360Z,20.80
2019-04-29T10:34:13.715Z,20.60
2019-04-29T10:36:51.295Z,20.60
2019-04-29T10:39:42.413Z,20.60
2019-04-29T10:42:23.293Z,20.60
2019-04-29T10:45:15.422Z,20.50
2019-04-29T10:48:13.742Z,20.40
2019-04-29T10:50:52.210Z,20.30
2019-04-29T10:53:24.774Z,20.30
2019-04-29T10:56:01.050Z,20.40
2019-04-29T10:58:42.114Z,20.40
2019-04-29T11:02:00.289Z,20.40
2019-04-29T11:04:23.397Z,20.40
2019-04-29T11:06:56.929Z,20.60
2019-04-29T11:09:52.625Z,20.70
2019-04-29T11:12:37.379Z,20.70
2019-04-29T11:15:15.357Z,20.60
2019-04-29T11:17:58.814Z,20.80
2019-04-29T11:20:34.614Z,20.70
2019-04-29T11:23:33.431Z,20.80
2019-04-29T11:26:44.789Z,20.80
2019-04-29T11:29:51.986Z,20.80
2019-04-29T11:32:46.594Z,20.60
2019-04-29T11:35:49.565Z,20.80
2019-04-29T11:38:24.126Z,21.00
2019-04-29T11:40:59.567Z,20.70
2019-04-29T11:43:34.420Z,20.50
2019-04-29T11:46:09.925Z,20.60
2019-04-29T11:48:44.176Z,20.80
2019-04-29T11:51:34.278Z,21.00
2019-04-29T11:54:08.220Z,21.30
2019-04-29T11:56:45.879Z,21.40
2019-04-29T12:02:49.410Z,21.50
2019-04-29T12:05:35.571Z,21.40
2019-04-29T12:08:16.158Z,21.30
2019-04-29T12:11:05.652Z,21.20
2019-04-29T12:13:33.299Z,21.30
2019-04-29T12:16:19.704Z,21.60
2019-04-29T12:18:55.200Z,21.50
2019-04-29T12:21:37.872Z,21.50
2019-04-29T12:24:11.430Z,21.60
2019-04-29T12:26:45.083Z,21.70
2019-04-29T12:29:19.609Z,21.50
2019-04-29T12:32:29.521Z,21.70
2019-04-29T12:35:30.348Z,21.70
2019-04-29T12:38:40.239Z,21.80
2019-04-29T12:41:47.875Z,22.00
2019-04-29T12:44:18.490Z,21.90
2019-04-29T12:47:05.355Z,22.00
2019-04-29T12:49:42.417Z,22.10
2019-04-29T12:52:14.531Z,22.00
2019-04-29T12:54:47.709Z,21.80
2019-04-29T12:57:23.411Z,21.90
2019-04-29T12:59:56.595Z,21.90
2019-04-29T13:03:00.179Z,21.90
2019-04-29T13:06:09.807Z,21.80
2019-04-29T13:08:48.560Z,22.10
2019-04-29T13:11:35.949Z,22.30
2019-04-29T13:14:01.690Z,22.30
2019-04-29T13:16:57.616Z,22.40
2019-04-29T13:20:00.951Z,22.40
2019-04-29T13:22:32.033Z,22.20
2019-04-29T13:25:09.250Z,22.20
2019-04-29T13:27:45.847Z,21.90
2019-04-29T13:30:19.541Z,21.80
2019-04-29T13:32:53.457Z,21.90
2019-04-29T13:35:27.279Z,21.90
2019-04-29T13:38:02.199Z,21.70
2019-04-29T13:40:37.808Z,21.80
2019-04-29T13:49:12.301Z,22.00
2019-04-29T13:51:37.743Z,22.00
2019-04-29T13:54:11.841Z,22.20
2019-04-29T13:56:56.015Z,22.40
2019-04-29T14:02:31.407Z,22.30
2019-04-29T14:05:03.425Z,22.30
2019-04-29T14:07:39.605Z,22.50
2019-04-29T14:10:17.835Z,22.70
2019-04-29T14:13:05.072Z,22.60
2019-04-29T14:15:29.584Z,22.60
2019-04-29T14:18:06.861Z,22.90
2019-04-29T14:20:39.547Z,23.00
2019-04-29T14:23:13.532Z,23.10
2019-04-29T14:25:48.392Z,23.10
2019-04-29T14:28:22.530Z,23.00
2019-04-29T14:30:56.673Z,23.00
2019-04-29T14:33:45.661Z,23.10
2019-04-29T14:36:24.283Z,23.20
2019-04-29T14:38:56.361Z,23.10
2019-04-29T14:41:31.427Z,23.10
2019-04-29T14:44:30.208Z,22.90
2019-04-29T14:47:11.867Z,23.10
2019-04-29T14:49:50.891Z,23.00
2019-04-29T14:52:25.640Z,22.90
2019-04-29T14:54:59.316Z,22.90
2019-04-29T14:57:38.300Z,22.50
2019-04-29T15:00:24.377Z,22.50
2019-04-29T15:03:00.612Z,22.70
2019-04-29T15:05:34.460Z,22.80
2019-04-29T15:08:08.815Z,22.80
2019-04-29T15:10:42.712Z,23.00
2019-04-29T15:13:21.102Z,23.00
2019-04-29T15:16:23.415Z,22.90
2019-04-29T15:19:17.610Z,22.90
2019-04-29T15:21:57.013Z,23.00
2019-04-29T15:24:32.706Z,23.00
2019-04-29T15:27:07.143Z,23.10
2019-04-29T15:29:40.957Z,23.10
2019-04-29T15:32:17.827Z,23.20
2019-04-29T15:34:51.713Z,23.10
2019-04-29T15:37:26.777Z,22.90
2019-04-29T15:40:00.338Z,23.00
2019-04-29T15:42:37.777Z,23.00
2019-04-29T15:45:14.265Z,22.90
2019-04-29T15:47:48.463Z,22.70
2019-04-29T15:50:22.849Z,22.50
2019-04-29T15:52:58.922Z,22.30
2019-04-29T15:55:34.879Z,22.10
2019-04-29T15:58:10.159Z,21.90
2019-04-29T16:00:44.059Z,21.80
2019-04-29T16:03:18.373Z,21.50
2019-04-29T16:06:20.547Z,21.40
2019-04-29T16:08:59.255Z,21.40
2019-04-29T16:12:04.962Z,21.40
2019-04-29T16:14:38.094Z,21.20
2019-04-29T16:17:12.285Z,21.40
2019-04-29T16:19:46.661Z,21.50
2019-04-29T16:22:20.430Z,21.70
2019-04-29T16:24:59.259Z,21.80
2019-04-29T16:27:29.897Z,21.90
2019-04-29T16:30:04.399Z,21.70
2019-04-29T16:32:43.989Z,22.10
2019-04-29T16:35:23.629Z,22.30
2019-04-29T16:37:55.155Z,22.00
2019-04-29T16:40:33.943Z,21.80
2019-04-29T16:43:27.382Z,21.60
2019-04-29T16:46:17.050Z,21.20
2019-04-29T16:48:50.603Z,21.00
2019-04-29T16:51:25.311Z,20.70
2019-04-29T16:54:01.079Z,20.60
2019-04-29T16:56:35.723Z,20.50
2019-04-29T16:59:09.800Z,20.90
2019-04-29T17:01:44.165Z,21.70
2019-04-29T17:04:22.481Z,22.40
2019-04-29T17:07:11.963Z,22.60
2019-04-29T17:09:49.806Z,22.20
2019-04-29T17:12:29.479Z,21.90
2019-04-29T17:15:04.696Z,21.50
2019-04-29T17:17:41.005Z,21.10
2019-04-29T17:20:18.295Z,20.70
2019-04-29T17:22:53.529Z,20.60
2019-04-29T17:25:28.114Z,20.40
2019-04-29T17:28:25.448Z,20.20
2019-04-29T17:31:12.586Z,20.10
2019-04-29T17:34:54.872Z,20.00
2019-04-29T17:36:57.551Z,19.90
2019-04-29T17:39:31.931Z,19.80
2019-04-29T17:42:05.647Z,19.70
2019-04-29T17:44:46.533Z,19.60
2019-04-29T17:47:38.031Z,19.50
2019-04-29T17:50:56.894Z,19.40
2019-04-29T17:53:40.518Z,19.50
2019-04-29T17:56:26.994Z,19.20
2019-04-29T17:59:22.838Z,19.20
2019-04-29T18:02:28.104Z,19.20
2019-04-29T18:05:52.991Z,19.20
2019-04-29T18:08:42.711Z,19.10
2019-04-29T18:11:15.801Z,19.10
2019-04-29T18:13:52.625Z,19.10
2019-04-29T18:16:48.745Z,19.00
2019-04-29T18:19:34.837Z,19.00
2019-04-29T18:22:35.185Z,19.00
2019-04-29T18:25:30.688Z,19.00
2019-04-29T18:28:00.252Z,19.00
2019-04-29T18:30:37.984Z,18.90
2019-04-29T18:33:23.115Z,18.90
2019-04-29T18:36:04.372Z,18.80
2019-04-29T18:38:50.082Z,19.00
2019-04-29T18:41:28.557Z,19.00
2019-04-29T18:44:02.898Z,18.90
2019-04-29T18:46:37.725Z,18.80
2019-04-29T18:49:23.603Z,18.80
2019-04-29T18:52:02.266Z,18.80
2019-04-29T18:54:39.441Z,18.80
2019-04-29T18:57:27.152Z,18.70
2019-04-29T18:59:54.857Z,18.60
2019-04-29T19:02:45.010Z,18.70
2019-04-29T19:05:32.306Z,18.70
2019-04-29T19:08:12.186Z,18.70
2019-04-29T19:10:40.628Z,18.80
2019-04-29T19:13:16.695Z,18.80
2019-04-29T19:15:49.777Z,18.80
2019-04-29T19:18:27.643Z,18.70
2019-04-29T19:21:02.495Z,18.60
2019-04-29T19:23:36.926Z,18.70
2019-04-29T19:26:10.599Z,18.70
2019-04-29T19:28:45.235Z,18.70
2019-04-29T19:31:20.392Z,18.70
2019-04-29T19:33:57.321Z,18.60
2019-04-29T19:36:31.246Z,18.70
2019-04-29T19:39:11.785Z,18.60
2019-04-29T19:41:50.410Z,18.60
2019-04-29T19:44:26.396Z,18.60
2019-04-29T19:46:59.971Z,18.60
2019-04-29T19:49:40.287Z,18.50
2019-04-29T19:52:19.007Z,18.50
2019-04-29T19:55:03.201Z,18.50
2019-04-29T19:57:53.903Z,18.40
2019-04-29T20:00:38.967Z,18.40
2019-04-29T20:03:24.204Z,18.40
2019-04-29T20:06:21.199Z,18.40
2019-04-29T20:08:54.707Z,18.40
2019-04-29T20:11:35.996Z,18.30
2019-04-29T20:14:18.744Z,18.30
2019-04-29T20:17:14.962Z,18.40
2019-04-29T20:20:15.367Z,18.40
2019-04-29T20:25:28.441Z,18.30
2019-04-29T20:25:30.348Z,18.30
2019-04-29T20:28:08.631Z,18.30
2019-04-29T20:30:45.690Z,18.40
2019-04-29T20:33:20.034Z,18.30
2019-04-29T20:35:56.008Z,18.30
2019-04-29T20:38:35.083Z,18.30
2019-04-29T20:41:13.015Z,18.40
2019-04-29T20:43:48.778Z,18.40
2019-04-29T20:46:40.092Z,18.40
2019-04-29T20:49:08.216Z,18.30
2019-04-29T20:51:51.165Z,18.30
2019-04-29T20:54:35.448Z,18.20
2019-04-29T20:57:17.468Z,18.20
2019-04-29T20:59:50.423Z,18.20
2019-04-29T21:02:33.701Z,18.30
2019-04-29T21:05:10.026Z,18.30
2019-04-29T21:07:44.189Z,18.30
2019-04-29T21:10:18.733Z,18.20
2019-04-29T21:13:16.218Z,18.20
2019-04-29T21:16:05.237Z,18.20
2019-04-29T21:18:38.914Z,18.20
2019-04-29T21:21:15.212Z,18.20
2019-04-29T21:23:58.631Z,18.20
2019-04-29T21:26:39.646Z,18.20
2019-04-29T21:29:14.782Z,18.10
2019-04-29T21:31:50.684Z,18.00
2019-04-29T21:34:25.477Z,17.90
2019-04-29T21:37:26.690Z,17.90
2019-04-29T21:40:14.697Z,17.90
2019-04-29T21:42:56.663Z,17.90
2019-04-29T21:45:30.494Z,18.00
2019-04-29T21:48:05.959Z,18.00
2019-04-29T21:50:39.645Z,18.00
2019-04-29T21:53:15.117Z,17.90
2019-04-29T21:55:50.378Z,17.80
2019-04-29T21:58:24.012Z,17.90
2019-04-29T22:01:01.411Z,17.90
2019-04-29T22:03:37.581Z,17.80
2019-04-29T22:06:11.412Z,17.70
2019-04-29T22:08:45.344Z,17.80
2019-04-29T22:11:18.916Z,17.80
2019-04-29T22:13:52.873Z,17.80
2019-04-29T22:16:27.727Z,17.80
2019-04-29T22:19:02.141Z,17.90
2019-04-29T22:21:39.241Z,17.90
2019-04-29T22:24:15.001Z,17.90
2019-04-29T22:26:48.548Z,17.80
2019-04-29T22:29:22.954Z,17.80
2019-04-29T22:31:56.113Z,17.70
2019-04-29T22:34:30.244Z,17.70
2019-04-29T22:37:05.508Z,17.80
2019-04-29T22:39:39.196Z,17.80
2019-04-29T22:42:28.995Z,17.70
2019-04-29T22:45:05.551Z,17.70
2019-04-29T22:47:39.895Z,17.70
2019-04-29T22:50:13.982Z,17.70
2019-04-29T22:52:48.567Z,17.70
2019-04-29T22:58:16.641Z,17.60
2019-04-29T23:00:53.495Z,17.60
2019-04-29T23:03:27.834Z,17.60
2019-04-29T23:06:05.017Z,17.60
2019-04-29T23:08:38.239Z,17.60
2019-04-29T23:11:11.184Z,17.60
2019-04-29T23:13:45.839Z,17.60
2019-04-29T23:16:19.656Z,17.60
2019-04-29T23:18:55.258Z,17.60
2019-04-29T23:21:48.208Z,17.50
2019-04-29T23:24:57.761Z,17.50
2019-04-29T23:27:33.190Z,17.50
2019-04-29T23:30:08.310Z,17.50
2019-04-29T23:32:44.305Z,17.60
2019-04-29T23:35:18.673Z,17.50
2019-04-29T23:37:52.076Z,17.60
2019-04-29T23:40:25.425Z,17.60
2019-04-29T23:42:58.540Z,17.60
2019-04-29T23:45:35.016Z,17.60
2019-04-29T23:48:08.266Z,17.60
2019-04-29T23:50:42.273Z,17.60
2019-04-29T23:53:16.035Z,17.60
2019-04-29T23:55:49.844Z,17.50
2019-04-29T23:58:37.246Z,17.50
